Time;durP1;ratioP1;P1;durP2;ratioP2;P2;SDS_P1;SDS_P2;PMS_P1;PMS_P2;Temp;Humidity;BMP_temperature;BMP_pressure;BME280_temperature;BME280_humidity;BME280_pressure;Samples;Min_cycle;Max_cycle;Signal;HPM_P1;HPM_P2
2022/05/08 00:00:33;;;;;;;14.27;7.25;;;;;;;;;;5036583;28;20043;-68
2022/05/08 00:03:05;;;;;;;13.45;7.38;;;;;;;;;;5036392;28;20112;-68
2022/05/08 00:05:37;;;;;;;10.40;6.13;;;;;;;;;;5027152;28;20492;-68
2022/05/08 00:08:03;;;;;;;17.10;6.93;;;;;;;;;;5036102;28;20033;-68
2022/05/08 00:10:34;;;;;;;14.35;6.68;;;;;;;;;;5036232;28;20037;-68
2022/05/08 00:13:06;;;;;;;14.27;6.47;;;;;;;;;;5035083;28;20057;-68
2022/05/08 00:15:31;;;;;;;12.75;6.28;;;;;;;;;;5035809;28;20033;-68
2022/05/08 00:18:03;;;;;;;15.40;6.60;;;;;;;;;;5036078;28;20032;-68
2022/05/08 00:20:36;;;;;;;14.15;6.53;;;;;;;;;;5036184;28;20030;-68
2022/05/08 00:23:01;;;;;;;11.27;6.35;;;;;;;;;;5035945;28;20116;-68
2022/05/08 00:25:33;;;;;;;13.25;6.15;;;;;;;;;;5036117;28;20104;-68
2022/05/08 00:28:05;;;;;;;11.07;5.97;;;;;;;;;;5035651;28;20560;-68
2022/05/08 00:30:30;;;;;;;8.77;6.10;;;;;;;;;;5035934;28;20041;-68
2022/05/08 00:33:02;;;;;;;12.32;6.15;;;;;;;;;;5035475;28;20029;-68
2022/05/08 00:35:34;;;;;;;11.30;6.90;;;;;;;;;;5035782;28;20116;-68
2022/05/08 00:37:59;;;;;;;10.40;6.10;;;;;;;;;;5035839;28;20068;-68
2022/05/08 00:40:35;;;;;;;11.00;6.28;;;;;;;;;;5035633;28;20447;-68
2022/05/08 00:43:33;;;;;;;11.50;5.95;;;;;;;;;;5035536;28;20120;-68
2022/05/08 00:46:13;;;;;;;8.90;5.15;;;;;;;;;;5035511;28;20116;-68
2022/05/08 00:48:45;;;;;;;10.65;5.88;;;;;;;;;;5035453;28;20116;-68
2022/05/08 00:51:17;;;;;;;8.15;4.80;;;;;;;;;;5035552;28;20096;-68
2022/05/08 00:53:54;;;;;;;11.55;5.60;;;;;;;;;;5067532;28;20045;-68
2022/05/08 00:56:26;;;;;;;13.80;5.55;;;;;;;;;;5034217;28;20045;-68
2022/05/08 00:58:53;;;;;;;8.00;5.72;;;;;;;;;;5035427;28;20518;-68
2022/05/08 01:01:26;;;;;;;10.20;6.05;;;;;;;;;;5035459;28;20030;-68
2022/05/08 01:03:58;;;;;;;10.75;5.28;;;;;;;;;;5032136;28;20033;-68
2022/05/08 01:06:24;;;;;;;8.48;5.60;;;;;;;;;;5035176;28;20095;-68
2022/05/08 01:08:57;;;;;;;8.50;5.35;;;;;;;;;;5050056;28;20373;-68
2022/05/08 01:11:29;;;;;;;12.07;5.70;;;;;;;;;;5035157;28;20275;-68
2022/05/08 01:13:54;;;;;;;17.98;6.38;;;;;;;;;;5034232;28;20053;-68
2022/05/08 01:16:27;;;;;;;12.32;5.63;;;;;;;;;;5034716;28;20032;-68
2022/05/08 01:18:59;;;;;;;9.40;5.85;;;;;;;;;;5035015;28;20061;-68
2022/05/08 01:21:45;;;;;;;7.95;5.43;;;;;;;;;;5034791;28;20033;-68
2022/05/08 01:24:22;;;;;;;11.20;5.55;;;;;;;;;;5065092;28;20037;-68
2022/05/08 01:26:54;;;;;;;11.27;5.70;;;;;;;;;;5034887;28;20033;-68
2022/05/08 01:29:26;;;;;;;10.02;5.47;;;;;;;;;;5034741;28;20037;-68
2022/05/08 01:31:51;;;;;;;10.35;5.75;;;;;;;;;;5034777;28;20041;-68
2022/05/08 01:34:24;;;;;;;9.57;5.32;;;;;;;;;;5034617;28;20037;-68
2022/05/08 01:36:56;;;;;;;10.55;5.82;;;;;;;;;;5034675;28;20040;-68
2022/05/08 01:39:21;;;;;;;12.38;6.05;;;;;;;;;;5034479;28;20072;-68
2022/05/08 01:41:53;;;;;;;10.75;5.88;;;;;;;;;;5034581;28;20049;-68
2022/05/08 01:44:25;;;;;;;12.05;6.13;;;;;;;;;;5026818;28;20396;-68
2022/05/08 01:48:21;;;;;;;12.60;5.80;;;;;;;;;;5034496;28;20033;-68
2022/05/08 01:49:49;;;;;;;11.70;5.70;;;;;;;;;;5034088;28;20083;-68
2022/05/08 01:52:14;;;;;;;9.07;5.57;;;;;;;;;;5034356;28;20033;-68
2022/05/08 01:54:40;;;;;;;11.32;6.00;;;;;;;;;;5033944;28;20080;-68
2022/05/08 01:57:18;;;;;;;15.23;6.05;;;;;;;;;;5034245;28;20029;-67
2022/05/08 01:59:43;;;;;;;12.30;6.18;;;;;;;;;;5034068;28;20149;-68
2022/05/08 02:02:09;;;;;;;12.95;6.55;;;;;;;;;;5033961;28;20497;-68
2022/05/08 02:04:47;;;;;;;12.85;6.05;;;;;;;;;;5032501;28;20029;-68
2022/05/08 02:07:12;;;;;;;16.40;7.10;;;;;;;;;;5034069;28;20037;-68
2022/05/08 02:09:38;;;;;;;16.67;7.53;;;;;;;;;;5033869;28;20362;-68
2022/05/08 02:12:17;;;;;;;13.43;7.03;;;;;;;;;;5032842;28;20033;-68
2022/05/08 02:14:45;;;;;;;13.93;7.38;;;;;;;;;;5033248;28;20040;-68
2022/05/08 02:17:24;;;;;;;18.92;7.55;;;;;;;;;;5033715;28;20109;-68
2022/05/08 02:19:49;;;;;;;14.75;6.40;;;;;;;;;;5033021;28;20444;-68
2022/05/08 02:22:15;;;;;;;15.23;6.88;;;;;;;;;;5033367;28;20018;-68
2022/05/08 02:24:53;;;;;;;15.32;7.05;;;;;;;;;;5065567;28;20025;-68
2022/05/08 02:27:18;;;;;;;15.05;7.30;;;;;;;;;;5033618;28;20052;-68
2022/05/08 02:30:04;;;;;;;17.60;7.30;;;;;;;;;;5048693;28;20385;-68
2022/05/08 02:32:30;;;;;;;14.27;6.63;;;;;;;;;;5034126;28;20033;-68
2022/05/08 02:34:55;;;;;;;15.75;7.40;;;;;;;;;;5048372;28;20032;-68
2022/05/08 02:37:34;;;;;;;18.73;7.78;;;;;;;;;;5031557;28;20041;-67
2022/05/08 02:39:59;;;;;;;14.98;7.47;;;;;;;;;;5029722;28;20041;-67
2022/05/08 02:42:26;;;;;;;24.15;7.97;;;;;;;;;;5033602;28;20370;-68
2022/05/08 02:45:05;;;;;;;19.80;7.85;;;;;;;;;;5033322;28;20389;-67
2022/05/08 02:47:33;;;;;;;19.60;7.78;;;;;;;;;;5025705;28;20120;-68
2022/05/08 02:50:13;;;;;;;20.23;7.35;;;;;;;;;;5033269;28;20025;-68
2022/05/08 02:52:39;;;;;;;20.70;7.53;;;;;;;;;;5030965;28;20037;-68
2022/05/08 03:00:55;;;;;;;23.60;8.93;;;;;;;;;;5033112;28;20056;-68
2022/05/08 03:03:27;;;;;;;25.10;8.18;;;;;;;;;;5033298;28;20453;-68
2022/05/08 03:05:52;;;;;;;23.40;8.93;;;;;;;;;;5033267;28;20082;-68
2022/05/08 03:08:24;;;;;;;25.58;8.18;;;;;;;;;;5033144;28;20453;-68
2022/05/08 03:13:47;;;;;;;21.95;8.93;;;;;;;;;;5032150;28;20103;-68
2022/05/08 03:16:19;;;;;;;28.55;9.00;;;;;;;;;;5033176;28;20033;-67
2022/05/08 03:18:45;;;;;;;24.08;9.00;;;;;;;;;;5030943;28;20112;-68
2022/05/08 03:21:18;;;;;;;36.03;9.85;;;;;;;;;;5033123;28;20148;-68
2022/05/08 03:23:51;;;;;;;35.55;10.77;;;;;;;;;;5020140;28;20037;-68
2022/05/08 03:26:19;;;;;;;29.95;10.18;;;;;;;;;;5032932;28;20116;-68
2022/05/08 03:28:58;;;;;;;27.42;9.73;;;;;;;;;;5032643;28;20397;-68
2022/05/08 03:31:23;;;;;;;22.45;9.15;;;;;;;;;;5033354;28;20045;-67
2022/05/08 03:33:49;;;;;;;29.73;9.73;;;;;;;;;;5036974;28;20037;-68
2022/05/08 03:36:28;;;;;;;25.98;9.68;;;;;;;;;;5036906;28;20080;-68
2022/05/08 03:38:53;;;;;;;24.38;8.80;;;;;;;;;;5029762;28;20041;-68
2022/05/08 03:41:19;;;;;;;24.17;8.65;;;;;;;;;;5036854;28;20519;-68
2022/05/08 03:43:58;;;;;;;23.10;9.32;;;;;;;;;;5036127;28;20488;-68
2022/05/08 03:46:23;;;;;;;25.35;9.43;;;;;;;;;;5036567;28;20030;-68
2022/05/08 03:48:49;;;;;;;22.77;9.27;;;;;;;;;;5036836;28;20087;-68
2022/05/08 03:51:27;;;;;;;25.65;9.52;;;;;;;;;;5036636;28;20480;-68
2022/05/08 03:53:53;;;;;;;19.92;8.35;;;;;;;;;;5036513;28;20041;-68
2022/05/08 03:56:18;;;;;;;28.45;10.13;;;;;;;;;;5036531;28;20024;-68
2022/05/08 03:58:57;;;;;;;20.08;8.55;;;;;;;;;;5036493;28;20041;-68
2022/05/08 04:01:22;;;;;;;21.67;9.32;;;;;;;;;;5036276;28;20034;-68
2022/05/08 04:03:48;;;;;;;23.38;7.82;;;;;;;;;;5036529;28;20029;-67
2022/05/08 04:06:34;;;;;;;19.15;8.45;;;;;;;;;;5036174;28;20037;-68
2022/05/08 04:08:59;;;;;;;21.08;7.88;;;;;;;;;;5036013;28;20084;-67
2022/05/08 04:11:29;;;;;;;21.17;8.40;;;;;;;;;;5036294;28;20029;-68
2022/05/08 04:14:08;;;;;;;19.50;8.75;;;;;;;;;;5034694;28;20481;-68
2022/05/08 04:16:34;;;;;;;18.23;7.97;;;;;;;;;;5036138;28;20029;-68
2022/05/08 04:18:59;;;;;;;18.90;8.77;;;;;;;;;;5035031;28;20373;-68
2022/05/08 04:21:38;;;;;;;15.90;7.97;;;;;;;;;;5035982;28;20030;-68
2022/05/08 04:24:19;;;;;;;14.93;7.15;;;;;;;;;;5036104;28;20037;-68
2022/05/08 04:26:57;;;;;;;17.73;7.20;;;;;;;;;;5027026;28;20022;-68
2022/05/08 04:29:22;;;;;;;15.00;6.82;;;;;;;;;;5035793;28;20488;-68
2022/05/08 04:31:48;;;;;;;13.70;7.18;;;;;;;;;;5035954;28;20037;-68
2022/05/08 04:34:26;;;;;;;12.02;6.07;;;;;;;;;;5035538;28;20065;-68
2022/05/08 04:36:52;;;;;;;11.18;6.85;;;;;;;;;;5034698;28;20052;-68
2022/05/08 04:39:20;;;;;;;10.02;6.40;;;;;;;;;;5035751;28;20017;-68
2022/05/08 04:41:59;;;;;;;12.77;6.43;;;;;;;;;;5034555;28;20113;-68
2022/05/08 04:44:24;;;;;;;8.85;5.25;;;;;;;;;;5035037;28;20033;-68
2022/05/08 04:46:50;;;;;;;12.35;6.28;;;;;;;;;;5033015;28;20021;-68
2022/05/08 04:49:29;;;;;;;11.60;6.35;;;;;;;;;;5035707;28;20028;-68
2022/05/08 04:51:55;;;;;;;10.88;5.70;;;;;;;;;;5030538;28;20128;-68
2022/05/08 04:54:22;;;;;;;11.18;6.15;;;;;;;;;;5035536;28;20014;-68
2022/05/08 04:57:02;;;;;;;9.23;6.20;;;;;;;;;;5035469;28;20083;-68
2022/05/08 04:59:27;;;;;;;11.88;6.18;;;;;;;;;;5035369;28;20069;-68
2022/05/08 05:01:52;;;;;;;11.38;5.55;;;;;;;;;;5035380;28;20499;-68
2022/05/08 05:04:31;;;;;;;10.95;5.78;;;;;;;;;;5030913;28;20442;-68
2022/05/08 05:06:59;;;;;;;13.57;6.47;;;;;;;;;;5022165;28;20121;-68
2022/05/08 05:09:38;;;;;;;12.40;6.25;;;;;;;;;;5034541;28;20033;-68
2022/05/08 05:12:04;;;;;;;13.02;6.03;;;;;;;;;;5034916;28;20496;-68
2022/05/08 05:14:46;;;;;;;12.07;6.60;;;;;;;;;;5033524;28;20107;-68
2022/05/08 05:17:11;;;;;;;10.88;5.97;;;;;;;;;;5035084;28;20044;-68
2022/05/08 05:19:37;;;;;;;10.57;5.68;;;;;;;;;;5034981;28;20025;-68
2022/05/08 05:22:15;;;;;;;10.80;5.10;;;;;;;;;;5035175;28;20030;-68
2022/05/08 05:24:41;;;;;;;7.32;4.63;;;;;;;;;;5034716;28;20045;-68
2022/05/08 05:27:06;;;;;;;8.50;5.18;;;;;;;;;;5034971;28;20029;-68
2022/05/08 05:29:45;;;;;;;10.40;5.13;;;;;;;;;;5034773;28;20064;-68
2022/05/08 05:32:11;;;;;;;7.45;4.72;;;;;;;;;;5034699;28;20061;-68
2022/05/08 05:34:36;;;;;;;8.43;5.05;;;;;;;;;;5034825;28;20072;-68
2022/05/08 05:37:15;;;;;;;9.32;5.20;;;;;;;;;;5034778;28;20034;-68
2022/05/08 05:39:40;;;;;;;8.63;4.90;;;;;;;;;;5034631;28;20033;-68
2022/05/08 05:42:06;;;;;;;7.10;4.80;;;;;;;;;;5034764;28;20044;-68
2022/05/08 05:44:45;;;;;;;9.45;4.80;;;;;;;;;;5034515;28;20030;-68
2022/05/08 05:50:07;;;;;;;8.55;4.30;;;;;;;;;;5024332;28;20029;-68
2022/05/08 05:52:36;;;;;;;6.38;4.25;;;;;;;;;;5034492;28;20037;-68
2022/05/08 05:55:14;;;;;;;9.20;5.25;;;;;;;;;;5033447;28;20037;-68
2022/05/08 05:57:39;;;;;;;7.57;4.55;;;;;;;;;;5034278;28;20045;-68
2022/05/08 06:00:11;;;;;;;8.10;4.72;;;;;;;;;;5034020;28;20033;-68
2022/05/08 06:02:50;;;;;;;7.63;4.50;;;;;;;;;;5034260;28;20037;-68
2022/05/08 06:05:15;;;;;;;10.68;4.95;;;;;;;;;;5033802;28;20473;-68
2022/05/08 06:07:42;;;;;;;7.82;4.47;;;;;;;;;;5033955;28;20128;-68
2022/05/08 06:10:20;;;;;;;7.63;4.63;;;;;;;;;;5034154;28;20460;-68
2022/05/08 06:12:45;;;;;;;6.00;4.30;;;;;;;;;;5032657;28;20053;-68
2022/05/08 06:15:11;;;;;;;8.07;4.13;;;;;;;;;;5034012;28;20030;-68
2022/05/08 06:17:49;;;;;;;6.63;4.30;;;;;;;;;;5033981;28;20057;-68
2022/05/08 06:20:14;;;;;;;6.75;4.10;;;;;;;;;;5033806;28;20049;-68
2022/05/08 06:22:40;;;;;;;7.05;4.65;;;;;;;;;;5033933;28;20358;-68
2022/05/08 06:25:19;;;;;;;7.00;4.25;;;;;;;;;;5033822;28;20028;-68
2022/05/08 06:27:44;;;;;;;5.88;4.32;;;;;;;;;;5031691;28;20543;-68
2022/05/08 06:30:10;;;;;;;11.80;8.82;;;;;;;;;;5033698;28;20033;-68
2022/05/08 06:32:49;;;;;;;13.52;8.02;;;;;;;;;;5033756;28;20029;-68
2022/05/08 06:35:14;;;;;;;15.02;9.27;;;;;;;;;;5033491;28;20044;-68
2022/05/08 06:37:40;;;;;;;16.25;7.70;;;;;;;;;;5032083;28;20029;-68
2022/05/08 06:40:18;;;;;;;16.77;10.52;;;;;;;;;;5033597;28;20060;-68
2022/05/08 06:42:43;;;;;;;18.40;11.48;;;;;;;;;;5033207;28;20409;-68
2022/05/08 06:45:09;;;;;;;20.35;11.18;;;;;;;;;;5033558;28;20033;-68
2022/05/08 06:47:48;;;;;;;21.55;11.00;;;;;;;;;;5033526;28;20041;-68
2022/05/08 06:50:14;;;;;;;18.63;11.73;;;;;;;;;;5033304;28;20064;-68
2022/05/08 06:52:39;;;;;;;17.63;11.25;;;;;;;;;;5033357;28;20461;-68
2022/05/08 06:55:19;;;;;;;20.00;12.60;;;;;;;;;;5048912;28;20061;-68
2022/05/08 06:57:44;;;;;;;20.67;12.85;;;;;;;;;;5033188;28;20045;-68
2022/05/08 07:03:10;;;;;;;21.20;12.70;;;;;;;;;;5030659;28;20401;-68
2022/05/08 07:05:40;;;;;;;19.70;11.45;;;;;;;;;;5032980;28;20485;-67
2022/05/08 07:08:18;;;;;;;17.50;11.55;;;;;;;;;;5032931;28;20057;-68
2022/05/08 07:10:43;;;;;;;21.70;11.40;;;;;;;;;;5032732;28;20132;-68
2022/05/08 07:13:09;;;;;;;17.25;10.80;;;;;;;;;;5032031;28;20184;-68
2022/05/08 07:15:47;;;;;;;14.52;9.70;;;;;;;;;;5033377;28;20074;-68
2022/05/08 07:18:12;;;;;;;14.77;10.10;;;;;;;;;;5032938;28;20389;-68
2022/05/08 07:20:38;;;;;;;18.13;10.52;;;;;;;;;;5032992;28;20036;-68
2022/05/08 07:23:17;;;;;;;16.13;10.38;;;;;;;;;;5033389;28;20037;-68
2022/05/08 07:25:42;;;;;;;16.40;10.60;;;;;;;;;;5031762;28;20046;-68
2022/05/08 07:28:08;;;;;;;17.60;10.63;;;;;;;;;;5032786;28;20048;-68
2022/05/08 07:30:48;;;;;;;14.85;9.70;;;;;;;;;;5030961;28;20029;-68
2022/05/08 07:33:16;;;;;;;18.48;10.07;;;;;;;;;;5032298;28;20042;-68
2022/05/08 07:38:47;;;;;;;12.05;9.48;;;;;;;;;;5032605;28;20100;-68
2022/05/08 07:41:26;;;;;;;12.60;8.50;;;;;;;;;;5032931;28;20033;-68
2022/05/08 07:43:51;;;;;;;12.60;9.05;;;;;;;;;;5024771;28;20117;-68
2022/05/08 07:46:17;;;;;;;13.77;8.52;;;;;;;;;;5030209;28;20108;-68
2022/05/08 07:48:55;;;;;;;14.25;8.90;;;;;;;;;;5032341;28;20219;-68
2022/05/08 07:51:20;;;;;;;12.75;8.43;;;;;;;;;;5030552;28;20034;-68
2022/05/08 07:53:46;;;;;;;12.82;8.93;;;;;;;;;;5032107;28;20385;-68
2022/05/08 07:56:24;;;;;;;12.52;8.20;;;;;;;;;;5031974;28;20109;-68
2022/05/08 07:58:49;;;;;;;14.85;8.93;;;;;;;;;;5030543;28;20389;-68
2022/05/08 08:01:15;;;;;;;10.95;7.72;;;;;;;;;;5031935;28;20025;-68
2022/05/08 08:03:53;;;;;;;9.25;7.22;;;;;;;;;;5030125;28;20034;-69
2022/05/08 08:06:18;;;;;;;11.88;6.60;;;;;;;;;;5024538;28;20481;-69
2022/05/08 08:08:44;;;;;;;10.98;6.80;;;;;;;;;;5032615;28;20026;-69
2022/05/08 08:11:22;;;;;;;14.05;6.28;;;;;;;;;;5032575;28;20475;-69
2022/05/08 08:13:47;;;;;;;10.63;7.50;;;;;;;;;;5023836;28;20041;-69
2022/05/08 08:16:13;;;;;;;11.05;7.93;;;;;;;;;;5030854;28;20075;-67
2022/05/08 08:18:54;;;;;;;10.25;7.57;;;;;;;;;;5030836;28;20461;-67
2022/05/08 08:21:19;;;;;;;8.27;6.35;;;;;;;;;;5032531;28;20539;-67
2022/05/08 08:23:58;;;;;;;9.82;7.38;;;;;;;;;;5027035;28;20033;-69
2022/05/08 08:26:23;;;;;;;8.90;6.88;;;;;;;;;;5032780;28;20045;-69
2022/05/08 08:28:49;;;;;;;11.00;6.68;;;;;;;;;;5033214;28;20163;-69
2022/05/08 08:31:27;;;;;;;9.18;6.75;;;;;;;;;;5034956;28;20026;-69
2022/05/08 08:33:52;;;;;;;12.75;6.78;;;;;;;;;;5030420;28;20040;-70
2022/05/08 08:36:18;;;;;;;11.95;6.78;;;;;;;;;;5034696;28;20377;-69
2022/05/08 08:38:57;;;;;;;10.23;7.00;;;;;;;;;;5034949;28;20048;-69
2022/05/08 08:41:27;;;;;;;9.60;7.45;;;;;;;;;;5035247;28;20034;-69
2022/05/08 08:49:57;;;;;;;9.48;6.55;;;;;;;;;;5033392;28;20044;-69
2022/05/08 08:52:22;;;;;;;8.05;6.50;;;;;;;;;;5035168;28;20056;-70
2022/05/08 08:54:54;;;;;;;8.65;6.30;;;;;;;;;;5034145;28;20446;-69
2022/05/08 08:57:26;;;;;;;8.60;6.72;;;;;;;;;;5035377;28;20108;-69
2022/05/08 08:59:51;;;;;;;10.25;6.45;;;;;;;;;;5034232;28;20040;-69
2022/05/08 09:02:23;;;;;;;9.60;6.47;;;;;;;;;;5035470;28;20029;-69
2022/05/08 09:04:57;;;;;;;8.23;6.32;;;;;;;;;;5033977;28;20049;-69
2022/05/08 09:07:41;;;;;;;9.80;6.82;;;;;;;;;;5035109;28;20120;-70
2022/05/08 09:10:13;;;;;;;7.70;6.15;;;;;;;;;;5035136;28;20132;-69
2022/05/08 09:12:40;;;;;;;9.48;5.80;;;;;;;;;;5034970;28;20052;-70
2022/05/08 09:15:24;;;;;;;9.32;6.03;;;;;;;;;;5028153;28;20049;-71
2022/05/08 09:18:01;;;;;;;8.57;6.20;;;;;;;;;;5026098;28;20473;-70
2022/05/08 09:20:48;;;;;;;9.10;5.82;;;;;;;;;;5034401;28;20029;-68
2022/05/08 09:23:23;;;;;;;7.00;5.75;;;;;;;;;;5033326;28;20377;-70
2022/05/08 09:26:03;;;;;;;6.07;5.10;;;;;;;;;;5032077;28;20090;-70
2022/05/08 09:28:42;;;;;;;6.80;5.85;;;;;;;;;;5033777;28;20041;-70
2022/05/08 09:31:22;;;;;;;7.72;5.80;;;;;;;;;;5032547;28;20025;-69
2022/05/08 09:33:48;;;;;;;8.13;5.93;;;;;;;;;;5028488;28;20036;-70
2022/05/08 09:36:30;;;;;;;7.80;5.70;;;;;;;;;;5034130;28;20690;-70
2022/05/08 09:38:57;;;;;;;9.38;6.05;;;;;;;;;;5034421;28;20043;-69
2022/05/08 09:41:47;;;;;;;9.45;5.70;;;;;;;;;;5034075;28;20029;-70
2022/05/08 09:44:12;;;;;;;7.97;5.15;;;;;;;;;;5032451;28;20108;-70
2022/05/08 09:46:46;;;;;;;9.02;5.55;;;;;;;;;;5033756;28;20121;-69
2022/05/08 09:49:19;;;;;;;7.95;5.38;;;;;;;;;;5034290;28;20091;-69
2022/05/08 09:51:53;;;;;;;7.93;5.07;;;;;;;;;;5034384;28;20034;-69
2022/05/08 09:54:19;;;;;;;9.50;5.15;;;;;;;;;;5034265;28;20040;-69
2022/05/08 09:56:52;;;;;;;8.20;5.60;;;;;;;;;;5034399;28;20033;-69
2022/05/08 09:59:24;;;;;;;;;;;;;;;;;;5034749;28;20396;-69
2022/05/08 10:01:50;;;;;;;10.18;5.18;;;;;;;;;;5027587;28;20020;-69
2022/05/08 10:04:21;;;;;;;8.05;5.63;;;;;;;;;;5037432;28;20101;-69
2022/05/08 10:06:56;;;;;;;7.88;4.70;;;;;;;;;;5034150;28;20452;-69
2022/05/08 10:15:25;;;;;;;7.60;5.03;;;;;;;;;;5028949;28;20065;-69
2022/05/08 10:18:27;;;;;;;6.13;4.93;;;;;;;;;;5029888;28;20041;-69
2022/05/08 10:21:12;;;;;;;9.85;5.13;;;;;;;;;;5032725;28;20124;-69
2022/05/08 10:23:47;;;;;;;7.75;5.00;;;;;;;;;;5025866;28;20046;-69
2022/05/08 10:26:20;;;;;;;7.18;5.13;;;;;;;;;;5033746;28;20038;-69
2022/05/08 10:29:01;;;;;;;8.68;5.18;;;;;;;;;;5033851;28;20391;-69
2022/05/08 10:31:52;;;;;;;8.10;5.25;;;;;;;;;;5031046;28;20043;-69
2022/05/08 10:34:36;;;;;;;7.40;4.95;;;;;;;;;;5032851;28;20503;-69
2022/05/08 10:37:17;;;;;;;7.50;5.10;;;;;;;;;;5026596;28;20040;-69
2022/05/08 10:39:51;;;;;;;8.25;4.57;;;;;;;;;;5031643;28;20037;-69
2022/05/08 10:42:39;;;;;;;6.60;4.18;;;;;;;;;;5032800;28;20033;-69
2022/05/08 10:45:28;;;;;;;8.65;5.25;;;;;;;;;;5033103;28;20442;-68
2022/05/08 10:48:05;;;;;;;6.75;4.63;;;;;;;;;;5033412;28;20037;-68
2022/05/08 10:50:39;;;;;;;7.28;4.85;;;;;;;;;;5033173;28;20045;-68
2022/05/08 10:53:11;;;;;;;6.45;4.68;;;;;;;;;;5033389;28;20041;-68
2022/05/08 10:55:43;;;;;;;6.82;4.00;;;;;;;;;;5032356;28;20048;-68
2022/05/08 10:58:09;;;;;;;7.45;4.70;;;;;;;;;;5033431;28;20037;-69
2022/05/08 11:00:41;;;;;;;8.45;5.00;;;;;;;;;;5033007;28;20444;-68
2022/05/08 11:03:19;;;;;;;9.18;4.68;;;;;;;;;;5033298;28;20060;-68
2022/05/08 11:05:52;;;;;;;9.15;4.55;;;;;;;;;;5033008;28;20500;-68
2022/05/08 11:08:29;;;;;;;7.63;4.70;;;;;;;;;;5047471;28;20068;-68
2022/05/08 11:11:07;;;;;;;7.30;4.82;;;;;;;;;;5033066;28;20034;-68
2022/05/08 11:13:48;;;;;;;6.80;4.63;;;;;;;;;;5022677;28;20045;-68
2022/05/08 11:16:34;;;;;;;7.72;4.68;;;;;;;;;;5032662;28;20543;-68
2022/05/08 11:19:06;;;;;;;6.97;4.85;;;;;;;;;;5033198;28;20037;-68
2022/05/08 11:21:33;;;;;;;8.38;5.40;;;;;;;;;;5032835;28;20179;-68
2022/05/08 11:24:05;;;;;;;7.25;4.55;;;;;;;;;;5033057;28;20422;-69
2022/05/08 11:26:37;;;;;;;8.07;4.65;;;;;;;;;;5032758;28;20409;-69
2022/05/08 11:29:04;;;;;;;8.13;4.65;;;;;;;;;;5032953;28;20108;-68
2022/05/08 11:36:04;;;;;;;7.40;4.57;;;;;;;;;;5032718;28;20113;-68
2022/05/08 11:37:26;;;;;;;7.18;4.38;;;;;;;;;;5021813;28;20112;-69
2022/05/08 11:39:58;;;;;;;7.78;4.20;;;;;;;;;;5032794;28;20034;-68
2022/05/08 11:42:26;;;;;;;7.57;4.40;;;;;;;;;;5064898;28;20439;-68
2022/05/08 11:45:18;;;;;;;10.02;4.30;;;;;;;;;;5033012;28;20029;-68
2022/05/08 11:47:54;;;;;;;8.60;3.95;;;;;;;;;;5032509;28;20508;-68
2022/05/08 11:50:32;;;;;;;6.68;3.97;;;;;;;;;;5032305;28;20481;-68
2022/05/08 11:53:02;;;;;;;7.45;3.67;;;;;;;;;;5034187;28;20056;-69
2022/05/08 11:55:49;;;;;;;9.27;5.20;;;;;;;;;;5068446;28;20037;-68
2022/05/08 11:58:30;;;;;;;7.30;4.57;;;;;;;;;;5036252;28;20369;-69
2022/05/08 12:01:09;;;;;;;5.80;3.53;;;;;;;;;;5036646;28;20037;-68
2022/05/08 12:03:34;;;;;;;8.65;3.75;;;;;;;;;;5060474;28;20492;-68
2022/05/08 12:06:26;;;;;;;6.28;3.40;;;;;;;;;;5036450;28;20026;-68
2022/05/08 12:08:51;;;;;;;5.40;3.28;;;;;;;;;;5050787;28;20542;-68
2022/05/08 12:11:41;;;;;;;6.50;3.60;;;;;;;;;;5035926;28;20025;-68
2022/05/08 12:14:07;;;;;;;4.63;2.80;;;;;;;;;;5034804;28;20122;-68
2022/05/08 12:16:47;;;;;;;7.88;4.13;;;;;;;;;;5033670;28;20029;-68
2022/05/08 12:19:19;;;;;;;6.03;3.30;;;;;;;;;;5033307;28;20044;-68
2022/05/08 12:21:57;;;;;;;6.30;2.60;;;;;;;;;;5035970;28;20046;-68
2022/05/08 12:24:22;;;;;;;5.07;2.65;;;;;;;;;;5035780;28;20052;-68
2022/05/08 12:26:49;;;;;;;5.15;2.78;;;;;;;;;;5036310;28;20104;-68
2022/05/08 12:29:28;;;;;;;6.55;3.38;;;;;;;;;;5032386;28;20507;-68
2022/05/08 12:31:53;;;;;;;5.53;2.80;;;;;;;;;;5035725;28;20046;-69
2022/05/08 12:34:20;;;;;;;4.45;2.78;;;;;;;;;;5035764;28;20028;-68
2022/05/08 12:36:59;;;;;;;6.38;2.80;;;;;;;;;;5036211;28;20033;-68
2022/05/08 12:39:25;;;;;;;5.43;2.80;;;;;;;;;;5033222;28;20080;-68
2022/05/08 12:41:50;;;;;;;5.93;3.50;;;;;;;;;;5036084;28;20034;-69
2022/05/08 12:44:29;;;;;;;8.10;2.78;;;;;;;;;;5035683;28;20032;-68
2022/05/08 12:46:56;;;;;;;4.57;2.50;;;;;;;;;;5035816;28;20049;-68
2022/05/08 12:49:21;;;;;;;4.00;2.50;;;;;;;;;;5035265;28;21356;-68
2022/05/08 12:52:00;;;;;;;6.03;2.88;;;;;;;;;;5035270;28;20029;-68
2022/05/08 12:54:25;;;;;;;6.15;2.83;;;;;;;;;;5034420;28;20485;-68
2022/05/08 12:56:51;;;;;;;7.00;2.75;;;;;;;;;;5035636;28;20033;-68
2022/05/08 12:59:50;;;;;;;3.58;2.20;;;;;;;;;;5035203;28;20465;-68
2022/05/08 13:02:18;;;;;;;4.60;2.25;;;;;;;;;;5035744;28;20112;-68
2022/05/08 13:04:56;;;;;;;3.28;1.90;;;;;;;;;;5024046;28;20045;-68
2022/05/08 13:07:21;;;;;;;3.95;2.08;;;;;;;;;;5034542;28;20068;-68
2022/05/08 13:09:47;;;;;;;4.78;2.75;;;;;;;;;;5035261;28;20053;-68
2022/05/08 13:12:25;;;;;;;4.35;2.22;;;;;;;;;;5035332;28;20030;-68
2022/05/08 13:14:50;;;;;;;5.20;2.25;;;;;;;;;;5029101;28;20409;-68
2022/05/08 13:17:16;;;;;;;5.68;2.13;;;;;;;;;;5035147;28;20021;-68
2022/05/08 13:19:56;;;;;;;3.45;2.42;;;;;;;;;;5034975;28;20022;-69
2022/05/08 13:22:23;;;;;;;6.07;2.70;;;;;;;;;;5034954;28;20045;-68
2022/05/08 13:25:01;;;;;;;4.78;2.13;;;;;;;;;;5035004;28;20465;-68
2022/05/08 13:27:26;;;;;;;4.35;1.95;;;;;;;;;;5034853;28;20037;-69
2022/05/08 13:29:52;;;;;;;4.53;2.05;;;;;;;;;;5035049;28;20424;-68
2022/05/08 13:32:30;;;;;;;4.72;1.98;;;;;;;;;;5034630;28;20026;-68
2022/05/08 13:34:55;;;;;;;6.25;2.45;;;;;;;;;;5029298;28;20052;-68
2022/05/08 13:37:21;;;;;;;4.07;2.30;;;;;;;;;;5034583;28;20025;-68
2022/05/08 13:40:00;;;;;;;3.60;2.20;;;;;;;;;;5034853;28;20112;-68
2022/05/08 13:42:26;;;;;;;4.55;2.33;;;;;;;;;;5054915;28;20083;-68
2022/05/08 13:44:51;;;;;;;3.20;1.70;;;;;;;;;;5034479;28;20025;-68
2022/05/08 13:47:30;;;;;;;6.18;2.10;;;;;;;;;;5034657;28;20053;-68
2022/05/08 13:49:55;;;;;;;5.07;2.65;;;;;;;;;;5034358;28;20116;-68
2022/05/08 13:52:24;;;;;;;7.07;2.30;;;;;;;;;;5034501;28;20109;-68
2022/05/08 13:55:04;;;;;;;3.25;1.77;;;;;;;;;;5034449;28;20034;-68
2022/05/08 13:57:31;;;;;;;8.07;2.08;;;;;;;;;;5034451;28;20044;-68
2022/05/08 14:00:14;;;;;;;5.53;1.98;;;;;;;;;;5034333;28;20095;-68
2022/05/08 14:02:43;;;;;;;3.47;1.52;;;;;;;;;;5034285;28;20114;-68
2022/05/08 14:05:21;;;;;;;2.97;1.58;;;;;;;;;;5034092;28;20021;-68
2022/05/08 14:07:46;;;;;;;6.65;2.00;;;;;;;;;;5034328;28;20048;-68
2022/05/08 14:10:13;;;;;;;4.38;1.92;;;;;;;;;;5034202;28;20037;-68
2022/05/08 14:12:51;;;;;;;4.30;1.60;;;;;;;;;;5034094;28;20026;-68
2022/05/08 14:15:20;;;;;;;5.75;1.75;;;;;;;;;;5032829;28;20164;-68
2022/05/08 14:17:59;;;;;;;5.47;1.52;;;;;;;;;;5033170;28;20036;-69
2022/05/08 14:20:27;;;;;;;3.65;2.10;;;;;;;;;;5033799;28;20041;-68
2022/05/08 14:23:07;;;;;;;6.43;2.10;;;;;;;;;;5033806;28;20032;-68
2022/05/08 14:25:32;;;;;;;5.28;1.70;;;;;;;;;;5033757;28;20044;-68
2022/05/08 14:27:58;;;;;;;4.05;1.90;;;;;;;;;;5033765;28;20025;-68
2022/05/08 14:30:36;;;;;;;3.63;1.70;;;;;;;;;;5031820;28;20404;-68
2022/05/08 14:36:04;;;;;;;4.45;2.20;;;;;;;;;;5031207;28;20075;-68
2022/05/08 14:38:29;;;;;;;10.77;4.05;;;;;;;;;;5033613;28;20045;-68
2022/05/08 14:41:08;;;;;;;4.30;2.03;;;;;;;;;;5033446;28;20025;-68
2022/05/08 14:43:34;;;;;;;10.15;2.65;;;;;;;;;;5032413;28;20456;-68
2022/05/08 14:46:00;;;;;;;5.10;1.92;;;;;;;;;;5033439;28;20037;-68
2022/05/08 14:48:39;;;;;;;4.30;1.85;;;;;;;;;;5033500;28;20075;-68
2022/05/08 14:51:05;;;;;;;5.00;2.30;;;;;;;;;;5021874;28;20064;-68
2022/05/08 14:53:30;;;;;;;6.13;2.33;;;;;;;;;;5033409;28;20465;-68
2022/05/08 14:56:12;;;;;;;8.35;2.30;;;;;;;;;;5033580;28;20030;-68
2022/05/08 14:58:38;;;;;;;8.63;2.35;;;;;;;;;;5031854;28;20482;-68
2022/05/08 15:01:17;;;;;;;10.05;3.20;;;;;;;;;;5033305;28;20033;-68
2022/05/08 15:03:42;;;;;;;7.63;4.63;;;;;;;;;;5033398;28;20037;-68
2022/05/08 15:06:08;;;;;;;4.60;1.95;;;;;;;;;;5033083;28;20029;-68
2022/05/08 15:08:47;;;;;;;4.68;2.08;;;;;;;;;;5033119;28;20108;-68
2022/05/08 15:11:14;;;;;;;4.10;1.70;;;;;;;;;;5033110;28;20106;-68
2022/05/08 15:13:40;;;;;;;4.72;1.88;;;;;;;;;;5031460;28;20104;-68
2022/05/08 15:16:18;;;;;;;5.50;2.10;;;;;;;;;;5032910;28;20106;-69
2022/05/08 15:18:49;;;;;;;6.38;2.00;;;;;;;;;;5033152;28;20053;-68
2022/05/08 15:21:28;;;;;;;4.13;1.95;;;;;;;;;;5032577;28;21265;-68
2022/05/08 15:23:54;;;;;;;3.75;2.00;;;;;;;;;;5033150;28;20116;-68
2022/05/08 15:26:20;;;;;;;3.50;1.63;;;;;;;;;;5032642;28;20500;-68
2022/05/08 15:28:58;;;;;;;4.32;1.80;;;;;;;;;;5035744;28;20029;-68
2022/05/08 15:31:23;;;;;;;6.65;2.20;;;;;;;;;;5036968;28;20108;-68
2022/05/08 15:33:49;;;;;;;6.10;1.80;;;;;;;;;;5037206;28;20100;-69
2022/05/08 15:36:27;;;;;;;7.60;2.25;;;;;;;;;;5036873;28;20438;-68
2022/05/08 15:38:52;;;;;;;7.57;2.00;;;;;;;;;;5035417;28;20037;-68